createdAt,value
2022-09-23T00:01:58.416Z,9.40
2022-09-23T00:04:27.609Z,9.40
2022-09-23T00:06:54.332Z,9.40
2022-09-23T00:09:21.119Z,9.40
2022-09-23T00:11:47.817Z,9.40
2022-09-23T00:14:14.577Z,9.40
2022-09-23T00:16:41.496Z,9.40
2022-09-23T00:19:08.289Z,9.40
2022-09-23T00:21:36.322Z,9.40
2022-09-23T00:24:03.075Z,9.40
2022-09-23T00:26:29.785Z,9.40
2022-09-23T00:28:56.508Z,9.40
2022-09-23T00:31:25.326Z,9.40
2022-09-23T00:33:56.560Z,9.40
2022-09-23T00:36:24.062Z,9.40
2022-09-23T00:38:53.183Z,9.40
2022-09-23T00:41:21.250Z,9.30
2022-09-23T00:43:50.282Z,9.30
2022-09-23T00:46:20.321Z,9.30
2022-09-23T00:48:47.942Z,9.30
2022-09-23T00:51:19.909Z,10.20
2022-09-23T00:53:48.562Z,9.20
2022-09-23T00:56:17.465Z,9.20
2022-09-23T00:58:46.696Z,9.20
2022-09-23T01:01:16.593Z,9.20
2022-09-23T01:03:44.612Z,9.10
2022-09-23T01:06:12.082Z,9.20
2022-09-23T01:08:39.731Z,9.20
2022-09-23T01:11:18.739Z,9.10
2022-09-23T01:13:54.746Z,9.10
2022-09-23T01:16:26.868Z,9.10
2022-09-23T01:19:00.383Z,9.10
2022-09-23T01:21:39.228Z,9.20
2022-09-23T01:24:23.914Z,9.10
2022-09-23T01:26:58.712Z,9.00
2022-09-23T01:29:59.593Z,9.00
2022-09-23T01:32:37.572Z,9.00
2022-09-23T01:35:10.414Z,8.90
2022-09-23T01:37:46.681Z,8.90
2022-09-23T01:40:20.174Z,8.80
2022-09-23T01:42:52.815Z,8.80
2022-09-23T01:45:24.047Z,8.80
2022-09-23T01:47:56.002Z,8.80
2022-09-23T01:50:46.258Z,8.80
2022-09-23T01:53:18.512Z,8.70
2022-09-23T01:55:50.666Z,8.60
2022-09-23T01:58:24.590Z,8.60
2022-09-23T02:00:58.122Z,8.60
2022-09-23T02:03:32.246Z,8.50
2022-09-23T02:06:03.244Z,8.50
2022-09-23T02:08:35.430Z,8.40
2022-09-23T02:11:07.727Z,8.50
2022-09-23T02:13:39.949Z,8.40
2022-09-23T02:16:12.120Z,8.40
2022-09-23T02:18:46.035Z,8.40
2022-09-23T02:21:15.316Z,8.40
2022-09-23T02:23:45.514Z,8.40
2022-09-23T02:26:19.645Z,8.40
2022-09-23T02:28:54.280Z,8.40
2022-09-23T02:31:29.920Z,8.40
2022-09-23T02:34:02.510Z,8.40
2022-09-23T02:36:32.309Z,8.30
2022-09-23T02:39:02.593Z,8.40
2022-09-23T02:41:34.056Z,8.40
2022-09-23T02:44:06.175Z,8.30
2022-09-23T02:46:33.848Z,8.30
2022-09-23T02:49:11.005Z,8.20
2022-09-23T02:51:38.358Z,8.30
2022-09-23T02:54:07.614Z,8.20
2022-09-23T02:56:34.829Z,8.20
2022-09-23T02:59:02.947Z,8.20
2022-09-23T03:01:39.483Z,8.20
2022-09-23T03:04:15.854Z,8.30
2022-09-23T03:06:52.644Z,8.30
2022-09-23T03:09:24.857Z,8.30
2022-09-23T03:12:00.303Z,8.20
2022-09-23T03:14:37.660Z,8.30
2022-09-23T03:17:10.465Z,8.20
2022-09-23T03:19:43.736Z,8.20
2022-09-23T03:22:12.945Z,8.20
2022-09-23T03:24:44.718Z,8.20
2022-09-23T03:27:16.107Z,8.20
2022-09-23T03:29:47.065Z,8.20
2022-09-23T03:32:15.846Z,8.20
2022-09-23T03:34:47.120Z,8.20
2022-09-23T03:37:18.699Z,8.20
2022-09-23T03:39:50.800Z,8.20
2022-09-23T03:42:23.174Z,8.30
2022-09-23T03:44:54.171Z,8.20
2022-09-23T03:47:21.721Z,8.20
2022-09-23T03:49:50.701Z,8.20
2022-09-23T03:52:19.603Z,8.20
2022-09-23T03:54:46.552Z,8.20
2022-09-23T03:57:14.122Z,8.30
2022-09-23T03:59:41.269Z,8.30
2022-09-23T04:02:08.445Z,8.30
2022-09-23T04:04:36.961Z,8.30
2022-09-23T04:07:05.108Z,8.30
2022-09-23T04:09:32.154Z,8.30
2022-09-23T04:11:58.914Z,8.30
2022-09-23T04:14:25.668Z,8.30
2022-09-23T04:16:52.392Z,8.30
2022-09-23T04:19:19.264Z,8.40
2022-09-23T04:21:46.369Z,8.40
2022-09-23T04:24:15.654Z,8.40
2022-09-23T04:26:43.008Z,8.40
2022-09-23T04:29:10.944Z,8.40
2022-09-23T04:31:38.154Z,8.40
2022-09-23T04:34:04.947Z,8.40
2022-09-23T04:36:31.819Z,8.40
2022-09-23T04:38:58.626Z,8.40
2022-09-23T04:41:26.701Z,8.40
2022-09-23T04:43:53.698Z,8.40
2022-09-23T04:46:20.753Z,8.40
2022-09-23T04:48:47.457Z,8.40
2022-09-23T04:51:15.837Z,8.40
2022-09-23T04:53:44.892Z,8.40
2022-09-23T04:56:13.822Z,8.50
2022-09-23T04:58:43.199Z,8.50
2022-09-23T05:01:11.318Z,8.50
2022-09-23T05:03:39.039Z,8.50
2022-09-23T05:06:06.388Z,8.50
2022-09-23T05:08:33.132Z,8.60
2022-09-23T05:11:00.936Z,8.50
2022-09-23T05:13:27.704Z,8.60
2022-09-23T05:16:01.153Z,8.60
2022-09-23T05:18:28.305Z,8.60
2022-09-23T05:20:55.512Z,8.60
2022-09-23T05:23:22.789Z,8.60
2022-09-23T05:25:49.511Z,8.60
2022-09-23T05:28:19.927Z,8.50
2022-09-23T05:30:46.715Z,8.50
2022-09-23T05:33:14.827Z,8.40
2022-09-23T05:35:47.065Z,8.50
2022-09-23T05:38:16.262Z,8.40
2022-09-23T05:40:43.512Z,8.40
2022-09-23T05:43:10.718Z,8.40
2022-09-23T05:45:37.564Z,8.40
2022-09-23T05:48:04.634Z,8.50
2022-09-23T05:50:32.673Z,8.50
2022-09-23T05:52:59.684Z,8.50
2022-09-23T05:55:26.967Z,8.50
2022-09-23T05:57:53.742Z,8.50
2022-09-23T06:00:20.590Z,8.50
2022-09-23T06:02:48.062Z,8.50
2022-09-23T06:05:16.246Z,8.50
2022-09-23T06:07:44.718Z,8.50
2022-09-23T06:10:11.564Z,8.50
2022-09-23T06:12:38.314Z,8.50
2022-09-23T06:15:06.275Z,8.50
2022-09-23T06:17:32.989Z,8.50
2022-09-23T06:19:59.822Z,8.50
2022-09-23T06:22:26.585Z,8.60
2022-09-23T06:24:54.627Z,8.60
2022-09-23T06:27:21.351Z,8.50
2022-09-23T06:29:49.390Z,8.50
2022-09-23T06:32:16.193Z,8.60
2022-09-23T06:34:51.743Z,8.70
2022-09-23T06:37:20.607Z,8.70
2022-09-23T06:39:48.998Z,8.70
2022-09-23T06:42:17.125Z,8.80
2022-09-23T06:44:43.825Z,8.80
2022-09-23T06:47:10.512Z,8.80
2022-09-23T06:49:37.313Z,8.90
2022-09-23T06:52:05.058Z,8.90
2022-09-23T06:54:31.741Z,8.90
2022-09-23T06:56:58.426Z,9.10
2022-09-23T06:59:26.492Z,9.20
2022-09-23T07:01:53.818Z,9.40
2022-09-23T07:04:20.967Z,9.50
2022-09-23T07:06:47.749Z,9.60
2022-09-23T07:09:14.536Z,9.70
2022-09-23T07:11:41.317Z,9.80
2022-09-23T07:14:08.020Z,10.00
2022-09-23T07:16:36.101Z,10.00
2022-09-23T07:19:02.845Z,10.10
2022-09-23T07:21:29.649Z,10.10
2022-09-23T07:23:57.997Z,10.20
2022-09-23T07:26:25.141Z,10.20
2022-09-23T07:28:55.807Z,10.30
2022-09-23T07:31:36.053Z,10.40
2022-09-23T07:34:07.472Z,10.50
2022-09-23T07:36:37.113Z,10.50
2022-09-23T07:39:04.029Z,10.60
2022-09-23T07:41:32.203Z,10.60
2022-09-23T07:44:00.334Z,10.60
2022-09-23T07:46:29.533Z,10.70
2022-09-23T07:48:56.529Z,10.70
2022-09-23T07:51:29.024Z,10.80
2022-09-23T07:53:57.574Z,10.80
2022-09-23T07:56:25.738Z,10.90
2022-09-23T07:59:03.583Z,10.90
2022-09-23T08:01:33.030Z,11.00
2022-09-23T08:04:02.251Z,11.10
2022-09-23T08:06:30.609Z,11.20
2022-09-23T08:08:58.000Z,11.20
2022-09-23T08:11:26.457Z,11.30
2022-09-23T08:13:53.804Z,11.30
2022-09-23T08:16:22.060Z,11.40
2022-09-23T08:18:49.099Z,11.50
2022-09-23T08:21:20.370Z,11.50
2022-09-23T08:23:49.022Z,11.60
2022-09-23T08:26:21.235Z,11.60
2022-09-23T08:28:48.950Z,11.70
2022-09-23T08:31:15.694Z,11.80
2022-09-23T08:33:43.046Z,11.80
2022-09-23T08:36:10.013Z,11.90
2022-09-23T08:38:36.757Z,12.00
2022-09-23T08:41:12.537Z,12.00
2022-09-23T08:43:40.699Z,12.20
2022-09-23T08:46:13.259Z,12.30
2022-09-23T08:48:44.178Z,12.40
2022-09-23T08:51:14.859Z,12.50
2022-09-23T08:53:42.813Z,12.60
2022-09-23T08:56:14.899Z,12.60
2022-09-23T08:58:53.357Z,12.70
2022-09-23T09:01:26.175Z,12.70
2022-09-23T09:03:55.978Z,12.80
2022-09-23T09:06:27.871Z,12.90
2022-09-23T09:08:57.254Z,13.00
2022-09-23T09:11:34.249Z,13.10
2022-09-23T09:14:11.839Z,13.20
2022-09-23T09:16:59.977Z,13.30
2022-09-23T09:19:47.941Z,13.40
2022-09-23T09:22:21.140Z,13.50
2022-09-23T09:24:49.376Z,13.60
2022-09-23T09:27:17.548Z,13.60
2022-09-23T09:29:50.132Z,13.70
2022-09-23T09:32:24.691Z,13.80
2022-09-23T09:34:55.816Z,13.90
2022-09-23T09:37:28.513Z,14.10
2022-09-23T09:39:56.161Z,14.20
2022-09-23T09:42:30.126Z,14.20
2022-09-23T09:45:00.949Z,14.30
2022-09-23T09:47:35.557Z,14.40
2022-09-23T09:50:07.092Z,14.40
2022-09-23T09:52:33.826Z,14.50
2022-09-23T09:55:23.201Z,14.60
2022-09-23T09:57:54.331Z,14.80
2022-09-23T10:00:38.114Z,15.00
2022-09-23T10:03:14.906Z,15.20
2022-09-23T10:05:48.933Z,15.40
2022-09-23T10:08:24.542Z,15.60
2022-09-23T10:10:55.154Z,15.50
2022-09-23T10:13:24.211Z,15.60
2022-09-23T10:15:54.710Z,15.80
2022-09-23T10:18:28.149Z,16.00
2022-09-23T10:21:02.179Z,16.20
2022-09-23T10:23:33.186Z,16.30
2022-09-23T10:26:02.248Z,16.40
2022-09-23T10:28:50.448Z,16.60
2022-09-23T10:31:25.906Z,16.70
2022-09-23T10:33:55.421Z,17.00
2022-09-23T10:36:22.255Z,17.20
2022-09-23T10:38:52.337Z,17.30
2022-09-23T10:41:49.675Z,17.20
2022-09-23T10:44:48.800Z,17.30
2022-09-23T10:47:26.134Z,17.40
2022-09-23T10:50:10.828Z,17.50
2022-09-23T10:52:48.867Z,17.50
2022-09-23T10:55:26.415Z,17.70
2022-09-23T10:58:20.529Z,17.60
2022-09-23T11:01:00.508Z,17.80
2022-09-23T11:04:07.440Z,18.00
2022-09-23T11:06:49.122Z,18.00
2022-09-23T11:09:27.729Z,18.10
2022-09-23T11:12:08.262Z,18.30
2022-09-23T11:14:51.445Z,18.30
2022-09-23T11:17:34.823Z,18.40
2022-09-23T11:20:31.385Z,18.30
2022-09-23T11:23:19.614Z,18.20
2022-09-23T11:25:56.238Z,18.20
2022-09-23T11:29:02.543Z,18.50
2022-09-23T11:31:39.727Z,18.60
2022-09-23T11:34:38.776Z,18.60
2022-09-23T11:37:12.775Z,18.60
2022-09-23T11:39:45.955Z,18.70
2022-09-23T11:42:19.394Z,18.80
2022-09-23T11:44:50.911Z,18.80
2022-09-23T11:47:21.913Z,18.70
2022-09-23T11:49:54.554Z,18.80
2022-09-23T11:52:27.738Z,18.90
2022-09-23T11:55:03.134Z,18.90
2022-09-23T11:57:46.707Z,19.00
2022-09-23T12:00:19.218Z,19.00
2022-09-23T12:03:04.506Z,18.90
2022-09-23T12:05:39.791Z,18.80
2022-09-23T12:08:14.916Z,18.90
2022-09-23T12:10:52.475Z,18.90
2022-09-23T12:13:24.318Z,18.90
2022-09-23T12:16:07.154Z,18.80
2022-09-23T12:18:47.592Z,18.70
2022-09-23T12:21:51.069Z,18.80
2022-09-23T12:24:44.685Z,18.70
2022-09-23T12:27:24.123Z,18.70
2022-09-23T12:29:55.398Z,18.90
2022-09-23T12:32:24.526Z,18.90
2022-09-23T12:34:53.018Z,19.00
2022-09-23T12:37:27.387Z,19.00
2022-09-23T12:39:58.865Z,19.00
2022-09-23T12:42:30.792Z,18.90
2022-09-23T12:45:32.720Z,18.70
2022-09-23T12:48:00.077Z,18.80
2022-09-23T12:50:53.132Z,18.80
2022-09-23T12:53:59.571Z,18.70
2022-09-23T12:56:56.987Z,18.90
2022-09-23T12:59:30.092Z,19.00
2022-09-23T13:01:57.684Z,19.30
2022-09-23T13:04:53.741Z,19.40
2022-09-23T13:07:25.819Z,19.50
2022-09-23T13:10:06.378Z,19.50
2022-09-23T13:12:39.299Z,19.70
2022-09-23T13:15:18.052Z,19.70
2022-09-23T13:17:44.835Z,19.40
2022-09-23T13:20:36.421Z,19.30
2022-09-23T13:23:15.467Z,19.40
2022-09-23T13:25:43.818Z,19.60
2022-09-23T13:28:33.352Z,19.70
2022-09-23T13:31:05.298Z,19.60
2022-09-23T13:33:38.740Z,19.60
2022-09-23T13:36:12.120Z,19.60
2022-09-23T13:38:38.868Z,19.70
2022-09-23T13:41:11.156Z,19.70
2022-09-23T13:43:43.529Z,19.70
2022-09-23T13:46:13.964Z,19.50
2022-09-23T13:48:43.477Z,19.30
2022-09-23T13:51:14.747Z,19.50
2022-09-23T13:53:41.472Z,19.50
2022-09-23T13:56:13.516Z,19.40
2022-09-23T13:58:43.253Z,19.60
2022-09-23T14:01:20.999Z,19.70
2022-09-23T14:03:47.723Z,19.60
2022-09-23T14:06:16.712Z,19.80
2022-09-23T14:08:45.530Z,19.80
2022-09-23T14:11:15.370Z,19.80
2022-09-23T14:13:46.497Z,19.60
2022-09-23T14:16:15.294Z,19.60
2022-09-23T14:18:45.354Z,19.40
2022-09-23T14:21:33.742Z,19.40
2022-09-23T14:24:12.565Z,19.40
2022-09-23T14:26:40.605Z,19.20
2022-09-23T14:29:13.742Z,19.10
2022-09-23T14:31:41.616Z,19.00
2022-09-23T14:34:42.569Z,18.90
2022-09-23T14:37:41.555Z,18.70
2022-09-23T14:40:13.513Z,18.60
2022-09-23T14:42:42.506Z,18.70
2022-09-23T14:45:16.488Z,18.60
2022-09-23T14:47:47.658Z,18.60
2022-09-23T14:50:38.809Z,18.60
2022-09-23T14:53:22.416Z,18.70
2022-09-23T14:55:52.771Z,18.70
2022-09-23T14:58:22.974Z,18.70
2022-09-23T15:00:54.783Z,18.70
2022-09-23T15:03:22.200Z,18.70
2022-09-23T15:05:51.092Z,18.70
2022-09-23T15:08:21.387Z,18.70
2022-09-23T15:10:48.769Z,18.60
2022-09-23T15:13:18.708Z,18.60
2022-09-23T15:15:45.963Z,18.60
2022-09-23T15:18:21.286Z,18.60
2022-09-23T15:20:50.532Z,18.60
2022-09-23T15:23:33.952Z,18.70
2022-09-23T15:26:05.802Z,18.70
2022-09-23T15:28:32.490Z,18.60
2022-09-23T15:30:59.212Z,18.60
2022-09-23T15:33:28.171Z,18.50
2022-09-23T15:35:55.459Z,18.50
2022-09-23T15:38:22.792Z,18.50
2022-09-23T15:40:49.978Z,18.50
2022-09-23T15:43:20.941Z,18.50
2022-09-23T15:45:50.292Z,18.50
2022-09-23T15:48:21.101Z,18.50
2022-09-23T15:50:50.328Z,18.50
2022-09-23T15:53:21.846Z,18.50
2022-09-23T15:55:51.306Z,18.40
2022-09-23T15:58:18.036Z,18.30
2022-09-23T16:00:45.033Z,18.30
2022-09-23T16:03:14.194Z,18.30
2022-09-23T16:05:44.134Z,18.30
2022-09-23T16:08:12.896Z,18.30
2022-09-23T16:10:39.755Z,18.30
2022-09-23T16:13:10.226Z,18.20
2022-09-23T16:15:39.066Z,18.10
2022-09-23T16:18:06.363Z,18.10
2022-09-23T16:20:36.220Z,18.10
2022-09-23T16:23:07.296Z,18.00
2022-09-23T16:25:36.551Z,18.00
2022-09-23T16:28:04.461Z,17.90
2022-09-23T16:30:33.225Z,17.80
2022-09-23T16:33:00.861Z,17.80
2022-09-23T16:35:29.253Z,17.70
2022-09-23T16:37:56.654Z,17.60
2022-09-23T16:40:24.410Z,17.60
2022-09-23T16:42:54.337Z,17.50
2022-09-23T16:45:23.056Z,17.40
2022-09-23T16:47:51.454Z,17.40
2022-09-23T16:50:20.669Z,17.40
2022-09-23T16:52:47.374Z,17.30
2022-09-23T16:55:14.473Z,17.20
2022-09-23T16:57:41.747Z,17.10
2022-09-23T17:00:32.580Z,17.10
2022-09-23T17:03:18.256Z,17.00
2022-09-23T17:05:46.817Z,17.00
2022-09-23T17:08:15.309Z,16.90
2022-09-23T17:10:43.415Z,16.80
2022-09-23T17:13:11.609Z,16.80
2022-09-23T17:15:40.305Z,16.70
2022-09-23T17:18:07.936Z,16.70
2022-09-23T17:20:35.398Z,16.60
2022-09-23T17:23:05.238Z,16.60
2022-09-23T17:25:31.887Z,16.40
2022-09-23T17:27:58.885Z,16.30
2022-09-23T17:30:26.767Z,16.30
2022-09-23T17:32:54.821Z,16.20
2022-09-23T17:35:21.740Z,16.20
2022-09-23T17:37:48.445Z,16.00
2022-09-23T17:40:15.340Z,16.00
2022-09-23T17:42:42.186Z,15.90
2022-09-23T17:45:10.229Z,15.80
2022-09-23T17:47:41.280Z,15.80
2022-09-23T17:50:09.821Z,15.80
2022-09-23T17:52:36.522Z,15.70
2022-09-23T17:55:03.488Z,15.70
2022-09-23T17:57:30.213Z,15.60
2022-09-23T17:59:57.059Z,15.60
2022-09-23T18:02:23.833Z,15.60
2022-09-23T18:04:50.790Z,15.50
2022-09-23T18:07:18.813Z,15.50
2022-09-23T18:09:45.499Z,15.50
2022-09-23T18:12:12.299Z,15.50
2022-09-23T18:14:38.993Z,15.40
2022-09-23T18:17:05.733Z,15.40
2022-09-23T18:19:32.430Z,15.40
2022-09-23T18:22:01.398Z,15.40
2022-09-23T18:24:33.381Z,15.30
2022-09-23T18:27:00.635Z,15.30
2022-09-23T18:29:27.434Z,15.30
2022-09-23T18:31:54.257Z,15.20
2022-09-23T18:34:22.063Z,15.20
2022-09-23T18:36:48.927Z,15.20
2022-09-23T18:39:15.833Z,15.20
2022-09-23T18:41:43.852Z,15.20
2022-09-23T18:44:10.675Z,15.10
2022-09-23T18:46:37.846Z,15.10
2022-09-23T18:49:23.503Z,15.10
2022-09-23T18:51:52.245Z,15.00
2022-09-23T18:54:22.282Z,15.00
2022-09-23T18:56:52.451Z,15.00
2022-09-23T18:59:20.983Z,14.90
2022-09-23T19:01:49.681Z,14.90
2022-09-23T19:04:18.707Z,14.90
2022-09-23T19:09:14.470Z,14.90
2022-09-23T19:11:41.214Z,14.80
2022-09-23T19:14:11.416Z,14.80
2022-09-23T19:16:39.730Z,14.80
2022-09-23T19:19:07.256Z,14.70
2022-09-23T19:21:34.326Z,14.60
2022-09-23T19:24:03.711Z,14.60
2022-09-23T19:26:32.682Z,14.60
2022-09-23T19:29:02.016Z,14.60
2022-09-23T19:31:33.205Z,14.60
2022-09-23T19:34:02.141Z,14.60
2022-09-23T19:36:30.850Z,14.60
2022-09-23T19:38:59.576Z,14.60
2022-09-23T19:41:28.105Z,14.60
2022-09-23T19:44:03.009Z,14.60
2022-09-23T19:46:32.364Z,14.60
2022-09-23T19:49:00.286Z,14.60
2022-09-23T19:51:27.335Z,14.60
2022-09-23T19:53:54.075Z,14.60
2022-09-23T19:56:20.887Z,14.60
2022-09-23T19:58:52.053Z,14.60
2022-09-23T20:01:19.251Z,14.60
2022-09-23T20:03:47.836Z,14.60
2022-09-23T20:06:15.420Z,14.50
2022-09-23T20:08:42.793Z,14.50
2022-09-23T20:11:12.194Z,14.50
2022-09-23T20:13:39.500Z,14.50
2022-09-23T20:16:10.350Z,14.50
2022-09-23T20:18:37.562Z,14.50
2022-09-23T20:21:07.144Z,14.50
2022-09-23T20:23:34.399Z,14.50
2022-09-23T20:26:21.440Z,14.50
2022-09-23T20:28:48.405Z,14.50
2022-09-23T20:31:16.189Z,14.50
2022-09-23T20:33:43.537Z,14.50
2022-09-23T20:36:13.368Z,14.50
2022-09-23T20:38:40.468Z,14.50
2022-09-23T20:41:08.205Z,14.50
2022-09-23T20:43:35.564Z,14.50
2022-09-23T20:46:04.013Z,14.50
2022-09-23T20:48:31.229Z,14.40
2022-09-23T20:51:01.512Z,14.40
2022-09-23T20:53:30.129Z,14.40
2022-09-23T20:55:58.096Z,14.40
2022-09-23T20:58:26.882Z,14.40
2022-09-23T21:00:54.372Z,14.30
2022-09-23T21:03:21.157Z,14.30
2022-09-23T21:05:47.837Z,14.30
2022-09-23T21:08:15.853Z,14.20
2022-09-23T21:10:52.574Z,14.30
2022-09-23T21:13:19.298Z,14.30
2022-09-23T21:15:46.035Z,14.30
2022-09-23T21:20:54.134Z,14.20
2022-09-23T21:23:24.200Z,14.10
2022-09-23T21:25:52.322Z,14.10
2022-09-23T21:28:19.168Z,14.10
2022-09-23T21:30:51.126Z,14.10
2022-09-23T21:33:18.658Z,14.10
2022-09-23T21:35:45.479Z,13.80
2022-09-23T21:38:12.214Z,15.30
2022-09-23T21:40:56.988Z,13.70
2022-09-23T21:43:25.650Z,13.60
2022-09-23T21:45:59.442Z,13.90
2022-09-23T21:48:27.757Z,13.80
2022-09-23T21:50:59.192Z,13.80
2022-09-23T21:53:28.555Z,13.90
2022-09-23T21:56:01.481Z,13.80
2022-09-23T21:58:29.897Z,13.80
2022-09-23T22:00:57.087Z,13.90
2022-09-23T22:03:24.207Z,13.90
2022-09-23T22:06:04.310Z,14.00
2022-09-23T22:08:34.708Z,14.00
2022-09-23T22:11:02.346Z,14.00
2022-09-23T22:13:30.418Z,13.80
2022-09-23T22:16:00.919Z,13.80
2022-09-23T22:18:28.238Z,13.80
2022-09-23T22:20:56.986Z,13.80
2022-09-23T22:23:24.222Z,13.80
2022-09-23T22:25:59.534Z,13.90
2022-09-23T22:29:07.229Z,14.00
2022-09-23T22:31:53.031Z,14.00
2022-09-23T22:34:48.633Z,14.00
2022-09-23T22:37:17.459Z,14.00
2022-09-23T22:39:44.719Z,14.00
2022-09-23T22:42:12.988Z,14.00
2022-09-23T22:44:41.108Z,14.00
2022-09-23T22:47:09.164Z,14.00
2022-09-23T22:49:36.150Z,14.00
2022-09-23T22:52:06.885Z,14.00
2022-09-23T22:54:34.502Z,14.00
2022-09-23T22:57:03.932Z,14.00
2022-09-23T22:59:30.655Z,14.00
2022-09-23T23:01:59.578Z,14.00
2022-09-23T23:04:26.905Z,14.00
2022-09-23T23:06:53.632Z,13.90
2022-09-23T23:09:20.372Z,14.00
2022-09-23T23:11:47.241Z,14.00
2022-09-23T23:14:16.104Z,14.00
2022-09-23T23:16:43.614Z,13.90
2022-09-23T23:19:13.594Z,13.90
2022-09-23T23:21:43.386Z,13.90
2022-09-23T23:24:13.549Z,13.90
2022-09-23T23:26:40.285Z,13.90
2022-09-23T23:29:07.093Z,13.90
2022-09-23T23:31:33.946Z,13.90
2022-09-23T23:34:00.759Z,13.90
2022-09-23T23:36:30.681Z,13.80
2022-09-23T23:38:57.696Z,13.80
2022-09-23T23:41:24.416Z,13.80
2022-09-23T23:43:55.575Z,13.80
2022-09-23T23:46:25.459Z,13.80
2022-09-23T23:48:53.210Z,13.80
2022-09-23T23:51:20.650Z,13.80
2022-09-23T23:53:48.876Z,13.80
2022-09-23T23:56:18.002Z,13.80
2022-09-23T23:58:45.539Z,13.80
